createdAt,value
2022-08-26T00:01:53.970Z,100607.20
2022-08-26T00:04:25.106Z,100604.00
2022-08-26T00:06:53.758Z,100606.00
2022-08-26T00:09:21.067Z,100608.20
2022-08-26T00:11:48.032Z,100607.40
2022-08-26T00:14:16.885Z,100605.40
2022-08-26T00:16:47.897Z,100606.20
2022-08-26T00:19:21.724Z,100608.80
2022-08-26T00:21:50.164Z,100609.60
2022-08-26T00:24:21.771Z,100609.00
2022-08-26T00:26:50.084Z,100608.40
2022-08-26T00:29:19.252Z,100606.00
2022-08-26T00:31:48.384Z,100605.40
2022-08-26T00:34:19.228Z,100601.60
2022-08-26T00:36:47.498Z,100603.00
2022-08-26T00:39:20.021Z,100611.40
2022-08-26T00:41:47.574Z,100619.40
2022-08-26T00:44:14.491Z,100615.00
2022-08-26T00:46:47.290Z,100619.80
2022-08-26T00:49:25.793Z,100620.40
2022-08-26T00:51:56.711Z,100624.00
2022-08-26T00:54:28.412Z,100632.40
2022-08-26T00:57:02.672Z,100631.60
2022-08-26T00:59:33.159Z,100632.20
2022-08-26T01:02:02.736Z,100639.60
2022-08-26T01:04:34.725Z,100642.60
2022-08-26T01:07:02.415Z,100646.00
2022-08-26T01:09:30.914Z,100640.80
2022-08-26T01:12:02.259Z,100633.20
2022-08-26T01:14:36.728Z,100632.80
2022-08-26T01:17:07.489Z,100628.40
2022-08-26T01:19:51.112Z,100633.00
2022-08-26T01:23:05.765Z,100624.40
2022-08-26T01:25:43.097Z,100624.60
2022-08-26T01:28:23.463Z,100621.20
2022-08-26T01:30:55.081Z,100616.20
2022-08-26T01:33:42.507Z,100621.80
2022-08-26T01:36:11.910Z,100623.60
2022-08-26T01:38:40.552Z,100623.80
2022-08-26T01:41:16.015Z,100623.60
2022-08-26T01:43:53.330Z,100625.20
2022-08-26T01:46:24.360Z,100632.80
2022-08-26T01:48:55.146Z,100636.60
2022-08-26T01:51:25.468Z,100635.80
2022-08-26T01:53:52.702Z,100635.40
2022-08-26T01:56:23.178Z,100643.80
2022-08-26T01:58:56.918Z,100656.60
2022-08-26T02:01:29.221Z,100657.60
2022-08-26T02:04:21.561Z,100648.40
2022-08-26T02:06:49.459Z,100660.80
2022-08-26T02:09:19.813Z,100656.60
2022-08-26T02:11:47.880Z,100666.80
2022-08-26T02:14:43.733Z,100667.20
2022-08-26T02:17:11.981Z,100670.40
2022-08-26T02:19:47.544Z,100676.20
2022-08-26T02:22:20.795Z,100676.20
2022-08-26T02:24:57.368Z,100674.40
2022-08-26T02:27:32.927Z,100677.60
2022-08-26T02:30:25.006Z,100684.20
2022-08-26T02:32:53.952Z,100682.80
2022-08-26T02:35:23.628Z,100675.40
2022-08-26T02:37:52.421Z,100676.80
2022-08-26T02:40:25.516Z,100677.80
2022-08-26T02:42:56.936Z,100674.20
2022-08-26T02:45:24.598Z,100675.80
2022-08-26T02:47:52.466Z,100678.20
2022-08-26T02:50:20.494Z,100676.40
2022-08-26T02:52:48.573Z,100684.00
2022-08-26T02:55:16.120Z,100678.80
2022-08-26T02:57:43.602Z,100677.80
2022-08-26T03:00:14.721Z,100682.60
2022-08-26T03:02:42.238Z,100679.20
2022-08-26T03:05:11.382Z,100674.60
2022-08-26T03:07:38.188Z,100669.60
2022-08-26T03:10:08.487Z,100673.80
2022-08-26T03:12:37.081Z,100675.40
2022-08-26T03:15:15.927Z,100680.40
2022-08-26T03:17:47.702Z,100672.40
2022-08-26T03:20:17.381Z,100674.00
2022-08-26T03:22:45.366Z,100678.60
2022-08-26T03:25:16.720Z,100681.20
2022-08-26T03:27:44.341Z,100681.20
2022-08-26T03:30:32.166Z,100687.00
2022-08-26T03:33:00.844Z,100690.40
2022-08-26T03:35:28.110Z,100689.60
2022-08-26T03:37:55.505Z,100689.60
2022-08-26T03:40:23.690Z,100688.40
2022-08-26T03:42:55.947Z,100683.40
2022-08-26T03:45:22.761Z,100679.40
2022-08-26T03:47:49.537Z,100684.80
2022-08-26T03:50:22.904Z,100681.40
2022-08-26T03:52:53.184Z,100684.80
2022-08-26T03:55:25.796Z,100695.20
2022-08-26T03:57:54.531Z,100695.60
2022-08-26T04:00:22.292Z,100689.20
2022-08-26T04:02:51.218Z,100691.20
2022-08-26T04:05:22.763Z,100697.80
2022-08-26T04:07:51.745Z,100697.00
2022-08-26T04:10:28.699Z,100692.80
2022-08-26T04:12:58.796Z,100695.00
2022-08-26T04:15:27.232Z,100696.60
2022-08-26T04:17:55.985Z,100699.40
2022-08-26T04:20:23.973Z,100698.60
2022-08-26T04:22:50.749Z,100699.80
2022-08-26T04:25:18.582Z,100699.80
2022-08-26T04:27:47.446Z,100706.20
2022-08-26T04:30:16.715Z,100706.80
2022-08-26T04:32:44.006Z,100703.00
2022-08-26T04:35:11.126Z,100706.40
2022-08-26T04:37:38.160Z,100710.40
2022-08-26T04:40:06.657Z,100713.60
2022-08-26T04:42:33.575Z,100716.00
2022-08-26T04:45:01.633Z,100711.80
2022-08-26T04:47:32.738Z,100711.00
2022-08-26T04:50:00.249Z,100715.80
2022-08-26T04:52:29.109Z,100716.60
2022-08-26T04:54:58.492Z,100717.20
2022-08-26T04:57:25.387Z,100715.80
2022-08-26T04:59:53.206Z,100717.60
2022-08-26T05:02:20.627Z,100719.80
2022-08-26T05:04:47.506Z,100719.00
2022-08-26T05:07:18.699Z,100719.60
2022-08-26T05:09:46.064Z,100721.20
2022-08-26T05:12:12.781Z,100723.80
2022-08-26T05:14:41.500Z,100724.40
2022-08-26T05:17:08.680Z,100729.60
2022-08-26T05:19:37.153Z,100726.60
2022-08-26T05:22:09.568Z,100724.00
2022-08-26T05:24:36.718Z,100718.80
2022-08-26T05:27:11.437Z,100719.00
2022-08-26T05:29:39.556Z,100725.40
2022-08-26T05:32:07.138Z,100727.60
2022-08-26T05:34:34.259Z,100729.40
2022-08-26T05:37:01.769Z,100728.40
2022-08-26T05:39:29.171Z,100732.20
2022-08-26T05:41:56.150Z,100726.40
2022-08-26T05:44:22.984Z,100730.80
2022-08-26T05:46:49.823Z,100732.40
2022-08-26T05:49:18.616Z,100733.60
2022-08-26T05:51:47.903Z,100737.00
2022-08-26T05:54:21.297Z,100738.60
2022-08-26T05:56:49.245Z,100737.20
2022-08-26T05:59:16.217Z,100742.20
2022-08-26T06:01:48.222Z,100741.00
2022-08-26T06:04:15.133Z,100740.40
2022-08-26T06:06:43.029Z,100741.40
2022-08-26T06:09:10.903Z,100742.00
2022-08-26T06:11:39.194Z,100740.80
2022-08-26T06:14:10.013Z,100741.40
2022-08-26T06:16:40.747Z,100736.60
2022-08-26T06:19:11.759Z,100743.60
2022-08-26T06:21:44.932Z,100741.40
2022-08-26T06:24:33.098Z,100744.80
2022-08-26T06:27:05.830Z,100745.40
2022-08-26T06:29:36.570Z,100753.80
2022-08-26T06:32:05.764Z,100752.00
2022-08-26T06:34:33.857Z,100753.40
2022-08-26T06:37:03.354Z,100752.80
2022-08-26T06:39:31.843Z,100753.40
2022-08-26T06:42:06.170Z,100754.80
2022-08-26T06:44:34.774Z,100755.20
2022-08-26T06:47:01.887Z,100756.60
2022-08-26T06:49:28.698Z,100758.00
2022-08-26T06:51:58.955Z,100761.00
2022-08-26T06:54:30.454Z,100754.80
2022-08-26T06:56:58.490Z,100755.60
2022-08-26T06:59:26.244Z,100756.60
2022-08-26T07:01:54.759Z,100759.40
2022-08-26T07:04:24.549Z,100769.40
2022-08-26T07:06:53.675Z,100771.00
2022-08-26T07:09:27.883Z,100770.40
2022-08-26T07:11:56.423Z,100773.60
2022-08-26T07:14:25.210Z,100768.20
2022-08-26T07:16:53.039Z,100761.80
2022-08-26T07:19:27.587Z,100769.20
2022-08-26T07:22:02.273Z,100771.40
2022-08-26T07:24:33.288Z,100767.20
2022-08-26T07:27:06.805Z,100768.80
2022-08-26T07:29:39.110Z,100764.60
2022-08-26T07:32:07.652Z,100769.20
2022-08-26T07:34:34.496Z,100766.20
2022-08-26T07:37:02.045Z,100775.20
2022-08-26T07:39:31.430Z,100775.40
2022-08-26T07:42:07.875Z,100776.40
2022-08-26T07:44:37.866Z,100778.60
2022-08-26T07:47:10.453Z,100780.80
2022-08-26T07:49:57.556Z,100780.80
2022-08-26T07:52:28.949Z,100782.80
2022-08-26T07:54:59.687Z,100788.00
2022-08-26T07:57:28.416Z,100791.00
2022-08-26T07:59:56.120Z,100796.80
2022-08-26T08:02:26.193Z,100796.40
2022-08-26T08:04:53.553Z,100797.20
2022-08-26T08:07:38.536Z,100797.60
2022-08-26T08:10:11.836Z,100802.80
2022-08-26T08:12:41.865Z,100802.20
2022-08-26T08:15:13.376Z,100800.60
2022-08-26T08:17:44.561Z,100804.20
2022-08-26T08:20:14.124Z,100804.20
2022-08-26T08:22:43.042Z,100806.40
2022-08-26T08:25:12.250Z,100804.60
2022-08-26T08:27:42.228Z,100807.80
2022-08-26T08:30:13.691Z,100813.00
2022-08-26T08:32:43.649Z,100815.60
2022-08-26T08:35:15.068Z,100819.80
2022-08-26T08:37:44.464Z,100822.80
2022-08-26T08:40:18.290Z,100822.80
2022-08-26T08:45:48.287Z,100824.80
2022-08-26T08:48:31.607Z,100826.60
2022-08-26T08:51:35.718Z,100824.20
2022-08-26T08:54:04.609Z,100826.20
2022-08-26T08:56:59.718Z,100824.80
2022-08-26T08:59:35.301Z,100827.40
2022-08-26T09:02:11.127Z,100823.80
2022-08-26T09:05:00.095Z,100823.20
2022-08-26T09:07:44.353Z,100822.00
2022-08-26T09:10:32.360Z,100826.00
2022-08-26T09:13:02.553Z,100829.80
2022-08-26T09:15:59.928Z,100829.20
2022-08-26T09:18:46.052Z,100829.60
2022-08-26T09:21:17.932Z,100826.00
2022-08-26T09:23:49.466Z,100824.60
2022-08-26T09:26:42.375Z,100826.60
2022-08-26T09:29:24.301Z,100832.40
2022-08-26T09:32:13.700Z,100830.40
2022-08-26T09:35:22.867Z,100823.60
2022-08-26T09:40:30.530Z,100828.60
2022-08-26T09:43:22.064Z,100826.00
2022-08-26T09:46:09.159Z,100823.60
2022-08-26T09:48:40.641Z,100824.00
2022-08-26T09:51:35.576Z,100825.60
2022-08-26T09:54:05.719Z,100823.40
2022-08-26T09:56:39.199Z,100825.20
2022-08-26T09:59:12.087Z,100824.80
2022-08-26T10:01:43.238Z,100822.00
2022-08-26T10:04:20.700Z,100816.60
2022-08-26T10:06:59.631Z,100816.60
2022-08-26T10:09:28.798Z,100809.60
2022-08-26T10:12:06.568Z,100810.40
2022-08-26T10:14:39.851Z,100808.40
2022-08-26T10:17:30.902Z,100806.80
2022-08-26T10:20:25.886Z,100808.20
2022-08-26T10:23:07.358Z,100808.40
2022-08-26T10:25:43.175Z,100808.80
2022-08-26T10:28:20.819Z,100809.20
2022-08-26T10:30:59.629Z,100808.80
2022-08-26T10:33:26.424Z,100805.20
2022-08-26T10:36:30.264Z,100807.20
2022-08-26T10:39:03.864Z,100806.60
2022-08-26T10:41:37.551Z,100810.60
2022-08-26T10:44:08.404Z,100804.20
2022-08-26T10:46:43.127Z,100808.60
2022-08-26T10:49:15.304Z,100807.60
2022-08-26T10:51:56.146Z,100809.80
2022-08-26T10:54:34.182Z,100803.40
2022-08-26T10:57:31.134Z,100809.80
2022-08-26T11:00:34.037Z,100803.60
2022-08-26T11:03:25.846Z,100806.20
2022-08-26T11:06:27.516Z,100811.60
2022-08-26T11:09:01.228Z,100815.40
2022-08-26T11:11:40.118Z,100818.20
2022-08-26T11:14:29.176Z,100815.40
2022-08-26T11:16:59.773Z,100819.00
2022-08-26T11:19:58.907Z,100819.40
2022-08-26T11:22:38.176Z,100814.60
2022-08-26T11:25:18.481Z,100814.60
2022-08-26T11:27:48.332Z,100812.80
2022-08-26T11:30:18.405Z,100812.20
2022-08-26T11:32:56.264Z,100810.20
2022-08-26T11:35:26.005Z,100810.00
2022-08-26T11:38:23.459Z,100805.80
2022-08-26T11:41:11.514Z,100805.20
2022-08-26T11:43:40.899Z,100805.20
2022-08-26T11:46:13.162Z,100799.40
2022-08-26T11:48:43.449Z,100798.40
2022-08-26T11:51:16.268Z,100795.00
2022-08-26T11:53:47.049Z,100798.60
2022-08-26T11:56:34.613Z,100793.00
2022-08-26T11:59:13.132Z,100794.20
2022-08-26T12:01:49.066Z,100797.20
2022-08-26T12:04:32.302Z,100799.60
2022-08-26T12:07:02.200Z,100801.00
2022-08-26T12:09:35.529Z,100804.20
2022-08-26T12:12:23.062Z,100799.20
2022-08-26T12:15:10.604Z,100799.00
2022-08-26T12:17:39.451Z,100804.60
2022-08-26T12:20:28.912Z,100795.00
2022-08-26T12:22:56.709Z,100797.60
2022-08-26T12:25:25.379Z,100800.20
2022-08-26T12:27:54.004Z,100799.00
2022-08-26T12:30:26.189Z,100797.40
2022-08-26T12:33:22.421Z,100789.80
2022-08-26T12:35:56.362Z,100791.00
2022-08-26T12:38:26.675Z,100788.40
2022-08-26T12:40:55.062Z,100791.80
2022-08-26T12:43:54.610Z,100796.20
2022-08-26T12:46:28.353Z,100796.80
2022-08-26T12:49:01.106Z,100795.80
2022-08-26T12:51:32.493Z,100794.40
2022-08-26T12:53:59.914Z,100791.40
2022-08-26T12:56:39.509Z,100792.40
2022-08-26T12:59:25.133Z,100789.80
2022-08-26T13:01:54.079Z,100784.60
2022-08-26T13:04:43.261Z,100785.80
2022-08-26T13:07:24.837Z,100781.40
2022-08-26T13:09:55.857Z,100781.80
2022-08-26T13:12:27.122Z,100784.00
2022-08-26T13:14:54.142Z,100783.20
2022-08-26T13:17:21.240Z,100781.80
2022-08-26T13:19:48.045Z,100778.00
2022-08-26T13:22:24.742Z,100774.20
2022-08-26T13:24:56.215Z,100772.40
2022-08-26T13:27:26.250Z,100770.80
2022-08-26T13:29:55.499Z,100772.00
2022-08-26T13:32:26.838Z,100772.00
2022-08-26T13:34:57.074Z,100774.00
2022-08-26T13:37:34.259Z,100780.20
2022-08-26T13:40:06.491Z,100777.00
2022-08-26T13:42:34.509Z,100780.80
2022-08-26T13:45:02.147Z,100772.60
2022-08-26T13:47:28.976Z,100771.80
2022-08-26T13:49:56.509Z,100776.80
2022-08-26T13:52:30.065Z,100779.40
2022-08-26T13:55:00.524Z,100782.20
2022-08-26T13:57:30.273Z,100779.60
2022-08-26T13:59:59.287Z,100783.20
2022-08-26T14:02:28.302Z,100782.80
2022-08-26T14:04:55.992Z,100781.80
2022-08-26T14:07:23.488Z,100781.40
2022-08-26T14:09:50.639Z,100777.80
2022-08-26T14:12:17.761Z,100778.00
2022-08-26T14:14:45.041Z,100769.60
2022-08-26T14:17:19.451Z,100770.80
2022-08-26T14:19:51.125Z,100777.20
2022-08-26T14:22:22.254Z,100773.60
2022-08-26T14:24:50.504Z,100775.60
2022-08-26T14:27:17.558Z,100769.60
2022-08-26T14:29:44.477Z,100772.80
2022-08-26T14:32:23.693Z,100770.60
2022-08-26T14:34:51.315Z,100772.00
2022-08-26T14:37:19.787Z,100773.80
2022-08-26T14:39:47.001Z,100779.20
2022-08-26T14:42:19.892Z,100789.20
2022-08-26T14:44:56.147Z,100792.40
2022-08-26T14:47:23.240Z,100791.00
2022-08-26T14:49:50.461Z,100791.20
2022-08-26T14:52:17.836Z,100787.80
2022-08-26T14:54:45.457Z,100789.60
2022-08-26T14:57:14.848Z,100777.80
2022-08-26T14:59:49.965Z,100775.80
2022-08-26T15:02:32.429Z,100770.80
2022-08-26T15:05:02.818Z,100772.60
2022-08-26T15:07:30.030Z,100773.80
2022-08-26T15:09:56.795Z,100775.60
2022-08-26T15:12:23.639Z,100770.60
2022-08-26T15:14:50.555Z,100772.00
2022-08-26T15:17:17.728Z,100775.20
2022-08-26T15:19:44.668Z,100767.80
2022-08-26T15:22:11.787Z,100770.60
2022-08-26T15:24:38.652Z,100765.20
2022-08-26T15:27:05.491Z,100768.20
2022-08-26T15:29:32.300Z,100765.60
2022-08-26T15:32:04.839Z,100767.80
2022-08-26T15:34:32.168Z,100772.60
2022-08-26T15:36:58.922Z,100778.00
2022-08-26T15:39:26.102Z,100780.20
2022-08-26T15:41:52.928Z,100781.00
2022-08-26T15:44:19.859Z,100777.40
2022-08-26T15:46:48.430Z,100772.40
2022-08-26T15:49:18.771Z,100766.80
2022-08-26T15:51:48.136Z,100767.00
2022-08-26T15:54:19.535Z,100762.80
2022-08-26T15:56:48.659Z,100765.20
2022-08-26T15:59:17.007Z,100771.40
2022-08-26T16:01:43.994Z,100770.60
2022-08-26T16:04:11.562Z,100771.80
2022-08-26T16:06:41.465Z,100771.60
2022-08-26T16:09:09.313Z,100773.20
2022-08-26T16:11:37.303Z,100774.20
2022-08-26T16:14:05.777Z,100776.80
2022-08-26T16:16:32.655Z,100780.40
2022-08-26T16:19:04.266Z,100775.60
2022-08-26T16:21:34.152Z,100775.00
2022-08-26T16:24:01.144Z,100774.20
2022-08-26T16:26:35.357Z,100773.60
2022-08-26T16:29:08.693Z,100778.00
2022-08-26T16:31:38.053Z,100772.20
2022-08-26T16:34:07.722Z,100776.00
2022-08-26T16:36:37.479Z,100781.20
2022-08-26T16:39:08.132Z,100778.60
2022-08-26T16:41:35.718Z,100785.40
2022-08-26T16:44:04.075Z,100788.60
2022-08-26T16:46:31.652Z,100795.60
2022-08-26T16:49:01.552Z,100798.80
2022-08-26T16:51:28.888Z,100799.80
2022-08-26T16:53:57.692Z,100798.60
2022-08-26T16:56:34.180Z,100797.80
2022-08-26T16:59:05.030Z,100804.80
2022-08-26T17:01:32.607Z,100811.40
2022-08-26T17:03:59.515Z,100811.60
2022-08-26T17:06:26.328Z,100812.40
2022-08-26T17:08:54.115Z,100811.80
2022-08-26T17:11:20.903Z,100813.40
2022-08-26T17:13:47.771Z,100810.60
2022-08-26T17:16:15.339Z,100814.80
2022-08-26T17:18:42.353Z,100813.60
2022-08-26T17:21:13.360Z,100815.20
2022-08-26T17:23:42.952Z,100815.80
2022-08-26T17:26:12.511Z,100814.00
2022-08-26T17:28:40.804Z,100819.00
2022-08-26T17:31:10.056Z,100819.20
2022-08-26T17:33:38.128Z,100824.40
2022-08-26T17:36:07.467Z,100826.80
2022-08-26T17:38:35.575Z,100828.20
2022-08-26T17:41:02.846Z,100830.80
2022-08-26T17:43:29.828Z,100832.20
2022-08-26T17:46:07.278Z,100831.80
2022-08-26T17:48:37.069Z,100832.00
2022-08-26T17:51:13.964Z,100825.80
2022-08-26T17:53:42.770Z,100821.20
2022-08-26T17:56:14.770Z,100814.60
2022-08-26T17:58:48.056Z,100816.20
2022-08-26T18:01:20.942Z,100817.00
2022-08-26T18:03:48.683Z,100822.20
2022-08-26T18:06:15.693Z,100818.00
2022-08-26T18:08:42.719Z,100819.20
2022-08-26T18:11:23.129Z,100817.00
2022-08-26T18:13:50.762Z,100816.00
2022-08-26T18:16:19.756Z,100810.40
2022-08-26T18:18:51.800Z,100811.80
2022-08-26T18:21:24.171Z,100810.60
2022-08-26T18:23:52.565Z,100813.40
2022-08-26T18:26:27.750Z,100822.40
2022-08-26T18:28:54.955Z,100827.40
2022-08-26T18:31:22.258Z,100825.00
2022-08-26T18:33:50.045Z,100825.20
2022-08-26T18:36:16.713Z,100822.80
2022-08-26T18:38:43.663Z,100826.60
2022-08-26T18:41:10.892Z,100825.80
2022-08-26T18:43:37.919Z,100827.60
2022-08-26T18:46:08.430Z,100825.20
2022-08-26T18:48:37.255Z,100819.40
2022-08-26T18:51:04.951Z,100817.20
2022-08-26T18:53:31.869Z,100822.20
2022-08-26T18:55:58.908Z,100819.80
2022-08-26T18:58:26.147Z,100823.40
2022-08-26T19:00:53.172Z,100827.00
2022-08-26T19:03:19.971Z,100822.60
2022-08-26T19:05:46.903Z,100826.20
2022-08-26T19:08:13.850Z,100830.60
2022-08-26T19:10:41.552Z,100840.20
2022-08-26T19:13:09.699Z,100844.20
2022-08-26T19:15:45.479Z,100848.00
2022-08-26T19:18:14.627Z,100849.20
2022-08-26T19:20:46.669Z,100849.60
2022-08-26T19:23:31.004Z,100848.00
2022-08-26T19:25:59.588Z,100848.00
2022-08-26T19:28:26.352Z,100846.20
2022-08-26T19:30:53.559Z,100846.00
2022-08-26T19:33:20.624Z,100853.40
2022-08-26T19:35:47.917Z,100853.20
2022-08-26T19:38:15.446Z,100847.00
2022-08-26T19:40:43.368Z,100845.40
2022-08-26T19:43:12.008Z,100846.00
2022-08-26T19:45:39.111Z,100844.40
2022-08-26T19:48:06.493Z,100846.60
2022-08-26T19:50:34.946Z,100838.80
2022-08-26T19:53:04.090Z,100841.00
2022-08-26T19:55:31.866Z,100849.60
2022-08-26T19:57:58.743Z,100853.00
2022-08-26T20:00:29.284Z,100848.60
2022-08-26T20:02:56.619Z,100851.40
2022-08-26T20:05:25.929Z,100857.40
2022-08-26T20:07:53.450Z,100858.80
2022-08-26T20:10:23.575Z,100864.40
2022-08-26T20:12:51.902Z,100862.00
2022-08-26T20:15:23.885Z,100860.80
2022-08-26T20:17:51.393Z,100863.20
2022-08-26T20:20:37.239Z,100851.60
2022-08-26T20:23:05.167Z,100855.80
2022-08-26T20:25:33.473Z,100857.60
2022-08-26T20:28:01.294Z,100855.40
2022-08-26T20:30:28.204Z,100868.80
2022-08-26T20:32:55.182Z,100866.60
2022-08-26T20:35:22.551Z,100864.80
2022-08-26T20:37:49.491Z,100869.60
2022-08-26T20:40:16.584Z,100870.80
2022-08-26T20:42:43.565Z,100878.40
2022-08-26T20:45:11.491Z,100879.20
2022-08-26T20:47:38.414Z,100884.20
2022-08-26T20:50:06.214Z,100891.20
2022-08-26T20:52:33.266Z,100894.40
2022-08-26T20:55:00.028Z,100895.40
2022-08-26T20:57:26.795Z,100894.40
2022-08-26T20:59:53.605Z,100897.20
2022-08-26T21:02:20.892Z,100893.00
2022-08-26T21:04:47.801Z,100894.60
2022-08-26T21:07:14.745Z,100893.00
2022-08-26T21:09:41.480Z,100899.20
2022-08-26T21:12:09.420Z,100895.80
2022-08-26T21:14:36.204Z,100895.60
2022-08-26T21:17:04.316Z,100892.60
2022-08-26T21:19:31.103Z,100899.00
2022-08-26T21:21:59.397Z,100894.80
2022-08-26T21:24:26.333Z,100902.20
2022-08-26T21:26:53.079Z,100903.20
2022-08-26T21:29:22.046Z,100908.20
2022-08-26T21:31:48.974Z,100914.40
2022-08-26T21:34:18.987Z,100910.40
2022-08-26T21:36:47.753Z,100914.80
2022-08-26T21:39:15.305Z,100910.60
2022-08-26T21:41:44.467Z,100908.80
2022-08-26T21:44:13.615Z,100915.60
2022-08-26T21:46:41.751Z,100916.40
2022-08-26T21:49:12.316Z,100921.60
2022-08-26T21:51:45.077Z,100923.80
2022-08-26T21:54:13.520Z,100919.60
2022-08-26T21:56:47.060Z,100922.60
2022-08-26T21:59:17.416Z,100914.00
2022-08-26T22:01:44.685Z,100921.00
2022-08-26T22:04:11.535Z,100919.80
2022-08-26T22:06:48.805Z,100922.60
2022-08-26T22:09:20.302Z,100924.60
2022-08-26T22:11:47.730Z,100921.40
2022-08-26T22:14:17.578Z,100915.40
2022-08-26T22:16:50.366Z,100917.20
2022-08-26T22:19:19.995Z,100917.20
2022-08-26T22:21:51.984Z,100914.00
2022-08-26T22:24:21.774Z,100915.20
2022-08-26T22:26:49.801Z,100916.40
2022-08-26T22:29:18.759Z,100914.60
2022-08-26T22:31:46.452Z,100915.80
2022-08-26T22:34:17.212Z,100917.20
2022-08-26T22:36:47.924Z,100916.60
2022-08-26T22:39:22.199Z,100916.00
2022-08-26T22:41:50.347Z,100914.40
2022-08-26T22:44:20.459Z,100909.00
2022-08-26T22:46:49.156Z,100908.60
2022-08-26T22:49:16.800Z,100909.20
2022-08-26T22:51:45.688Z,100910.80
2022-08-26T22:54:14.337Z,100913.20
2022-08-26T22:56:41.498Z,100916.20
2022-08-26T22:59:10.021Z,100918.00
2022-08-26T23:01:42.112Z,100918.40
2022-08-26T23:04:09.404Z,100917.80
2022-08-26T23:06:39.387Z,100915.20
2022-08-26T23:09:08.507Z,100920.20
2022-08-26T23:11:38.099Z,100914.60
2022-08-26T23:14:09.283Z,100913.00
2022-08-26T23:16:40.684Z,100912.60
2022-08-26T23:19:11.557Z,100910.80
2022-08-26T23:21:39.398Z,100909.80
2022-08-26T23:24:07.842Z,100910.80
2022-08-26T23:26:36.307Z,100908.40
2022-08-26T23:29:06.272Z,100907.80
2022-08-26T23:31:34.197Z,100907.60
2022-08-26T23:34:19.508Z,100903.80
2022-08-26T23:36:47.003Z,100910.60
2022-08-26T23:39:15.057Z,100903.20
2022-08-26T23:41:42.392Z,100899.00
2022-08-26T23:44:09.191Z,100901.40
2022-08-26T23:46:36.550Z,100900.80
2022-08-26T23:49:04.654Z,100901.20
2022-08-26T23:51:50.573Z,100897.80
2022-08-26T23:54:17.558Z,100899.40
2022-08-26T23:56:44.591Z,100898.40
2022-08-26T23:59:12.318Z,100894.40
